Etusivu
METAR-TAF:

METAR-TAF

Lentoasemat :

Amman, Jordania

Leveyspiiri: 31-59N, Pituuspiiri: 035-59E, korkeus merenpinnasta: 767 m

Tämänhetkinen sää

Tämä raportti tehtiin 2 tuntia ja 24 minuuttia sitten, kello 19.00 UTC
Tuuli 6 kn pohjoisen/luoteesta
Lämpötila 25°C
Kosteus 69%
Ilmanpaine 1012 hPa
Näkyvyys: 5000 m
Muutamia pilviä 3000 ft:n korkeudessa
usvaa

METAR: OJAM 171900Z 33006KT 5000 HZ FEW030 25/19 Q1012 NOSIG

Aika: 00:24 (21:24 UTC)

Sääennuste

Tämä raportti tehtiin 4 tuntia ja 34 minuuttia sitten, kello 16.50 UTC
Ennuste voimassa 17. päivästä klo 18 UTC - 18. päivään klo 24 UTC
Tuuli 10 kn lännestä/luoteesta
Näkyvyys: 5000 m
usvaa

TAF: OJAM 171650Z 1718/1824 29010KT 5000 HZ NSC

Säähavainnot ja -ennusteet yli 4000 lentoasemalta (METAR- ja TAF-raportit).

Käytössä olevat sääasemat on merkitty karttaan keltaisilla ja punaisilla pisteillä.

Aseta hiiri pisteen päälle nähdäksesi sääaseman nimen.

Klikkaa sitten nähdäksesi säähavainnot ja -ennusteet.

Kartan vaihtaminen: klikkaa mustalla rastilla varustettuja vihreitä pisteitä, niin voit zoomata sisään; viivalla varustettua vihreää pistettä, niin voit zoomata ulos tai vihreitä nuolia, niin pääset viereisille kartoille.


METAR-TAF: